Time;durP1;ratioP1;P1;durP2;ratioP2;P2;SDS_P1;SDS_P2;PMS_P1;PMS_P2;Temp;Humidity;BMP_temperature;BMP_pressure;BME280_temperature;BME280_humidity;BME280_pressure;Samples;Min_cycle;Max_cycle;Signal;HPM_P1;HPM_P2
2022/09/19 00:01:45;;;;;;;2.57;1.40;;;15.60;73.10;;;;;;5026702;28;20221;-68
2022/09/19 00:04:17;;;;;;;2.73;1.50;;;15.50;73.30;;;;;;5022587;28;20213;-67
2022/09/19 00:06:46;;;;;;;1.87;1.50;;;15.50;73.50;;;;;;5025179;28;20534;-68
2022/09/19 00:09:16;;;;;;;1.40;1.30;;;15.40;73.50;;;;;;5025328;28;20214;-67
2022/09/19 00:11:46;;;;;;;2.53;1.47;;;15.40;73.80;;;;;;5020972;28;20701;-68
2022/09/19 00:14:15;;;;;;;1.53;1.30;;;15.40;73.80;;;;;;5016611;28;20699;-68
2022/09/19 00:16:44;;;;;;;1.70;1.30;;;15.40;73.80;;;;;;5027373;28;20236;-68
2022/09/19 00:19:17;;;;;;;1.97;1.33;;;15.40;74.00;;;;;;5043607;28;20277;-67
2022/09/19 00:21:47;;;;;;;2.07;1.00;;;15.30;74.30;;;;;;5030871;28;20273;-67
2022/09/19 00:27:05;;;;;;;1.97;1.10;;;15.30;74.10;;;;;;5019130;28;20233;-67
2022/09/19 00:29:34;;;;;;;1.10;1.00;;;15.30;74.00;;;;;;5025412;28;20207;-67
2022/09/19 00:32:06;;;;;;;2.10;1.40;;;15.30;74.00;;;;;;5019832;28;20644;-68
2022/09/19 00:34:34;;;;;;;1.07;1.03;;;15.30;73.90;;;;;;5021472;28;20226;-67
2022/09/19 00:37:01;;;;;;;4.27;1.50;;;15.30;74.00;;;;;;5024315;28;20727;-68
2022/09/19 00:39:28;;;;;;;1.53;1.13;;;15.30;73.90;;;;;;5024297;28;20207;-67
2022/09/19 00:41:55;;;;;;;1.80;1.27;;;15.20;73.90;;;;;;5007023;28;20233;-68
2022/09/19 00:44:22;;;;;;;3.17;1.10;;;15.20;74.30;;;;;;5030374;28;20312;-67
2022/09/19 00:47:07;;;;;;;3.23;1.17;;;15.20;74.60;;;;;;5030978;28;20266;-67
2022/09/19 00:49:38;;;;;;;0.93;0.90;;;15.20;74.70;;;;;;5016888;28;20220;-68
2022/09/19 00:52:12;;;;;;;4.97;2.30;;;15.20;74.50;;;;;;5024263;28;20208;-68
2022/09/19 00:54:43;;;;;;;2.10;1.27;;;15.20;74.70;;;;;;5028187;28;20304;-67
2022/09/19 00:57:13;;;;;;;1.20;0.93;;;15.20;74.40;;;;;;5013688;28;20206;-68
2022/09/19 00:59:45;;;;;;;4.40;1.10;;;15.20;74.20;;;;;;5025979;28;20210;-68
2022/09/19 01:02:18;;;;;;;2.83;1.40;;;15.20;74.20;;;;;;5022610;28;20226;-68
2022/09/19 01:04:45;;;;;;;5.50;1.80;;;15.20;74.60;;;;;;5033294;28;20210;-68
2022/09/19 01:08:01;;;;;;;2.70;1.07;;;15.20;74.40;;;;;;5019122;28;20236;-68
2022/09/19 01:10:50;;;;;;;1.53;0.90;;;15.30;73.80;;;;;;5022656;28;20266;-67
2022/09/19 01:14:07;;;;;;;1.27;1.17;;;15.30;73.70;;;;;;5013897;28;20213;-67
2022/09/19 01:16:42;;;;;;;2.60;0.90;;;15.30;73.30;;;;;;5009965;28;20226;-68
2022/09/19 01:19:21;;;;;;;1.07;0.90;;;15.20;73.00;;;;;;5024230;28;20242;-68
2022/09/19 01:22:30;;;;;;;2.13;1.10;;;15.30;72.80;;;;;;5030801;28;20394;-67
2022/09/19 01:25:03;;;;;;;1.50;1.30;;;15.30;73.00;;;;;;5019093;28;20686;-68
2022/09/19 01:27:40;;;;;;;1.23;1.00;;;15.30;72.60;;;;;;5029041;28;20263;-67
2022/09/19 01:30:10;;;;;;;2.33;1.10;;;15.30;72.80;;;;;;5025956;28;20558;-67
2022/09/19 01:33:03;;;;;;;1.30;0.90;;;15.30;73.00;;;;;;5030268;28;20725;-67
2022/09/19 01:35:33;;;;;;;1.70;1.20;;;15.20;72.80;;;;;;5019829;28;20292;-68
2022/09/19 01:38:07;;;;;;;1.10;0.90;;;15.20;72.30;;;;;;5027399;28;20204;-67
2022/09/19 01:40:36;;;;;;;1.53;0.90;;;15.20;72.30;;;;;;5027037;28;20206;-67
2022/09/19 01:43:13;;;;;;;1.50;1.00;;;15.20;72.50;;;;;;5037365;28;20334;-67
2022/09/19 01:45:41;;;;;;;1.20;1.10;;;15.20;72.50;;;;;;5029965;28;20312;-67
2022/09/19 01:48:32;;;;;;;6.13;1.20;;;15.20;72.30;;;;;;5022009;28;20262;-68
2022/09/19 01:51:11;;;;;;;3.30;0.90;;;15.20;72.60;;;;;;5027549;28;20236;-67
2022/09/19 01:53:55;;;;;;;2.17;1.33;;;15.10;73.10;;;;;;5023449;28;20210;-67
2022/09/19 01:56:33;;;;;;;4.83;1.30;;;15.10;73.40;;;;;;5022439;28;20242;-67
2022/09/19 01:59:23;;;;;;;0.77;0.70;;;15.00;73.20;;;;;;5006733;28;20322;-67
2022/09/19 02:02:17;;;;;;;2.00;1.40;;;15.10;73.10;;;;;;5026039;28;20321;-68
2022/09/19 02:05:01;;;;;;;1.40;1.30;;;15.00;73.10;;;;;;5028746;28;20213;-68
2022/09/19 02:07:42;;;;;;;1.00;0.90;;;15.00;73.10;;;;;;5020291;28;20221;-68
2022/09/19 02:10:23;;;;;;;3.00;1.23;;;14.90;73.00;;;;;;5025962;28;20253;-67
2022/09/19 02:12:54;;;;;;;1.80;1.43;;;14.80;73.00;;;;;;5021840;28;20674;-67
2022/09/19 02:15:59;;;;;;;1.37;1.00;;;14.80;73.50;;;;;;5024662;28;20327;-68
2022/09/19 02:18:39;;;;;;;1.93;1.23;;;14.80;74.40;;;;;;5018068;28;20253;-67
2022/09/19 02:21:13;;;;;;;2.40;1.23;;;14.70;74.30;;;;;;5010529;28;20217;-68
2022/09/19 02:23:47;;;;;;;1.47;1.13;;;14.70;74.10;;;;;;5026454;28;20230;-67
2022/09/19 02:26:19;;;;;;;2.93;1.73;;;14.70;74.40;;;;;;5021983;28;20205;-67
2022/09/19 02:28:54;;;;;;;1.93;0.90;;;14.70;74.00;;;;;;5012780;28;20206;-67
2022/09/19 02:31:26;;;;;;;2.40;1.60;;;14.60;74.10;;;;;;5021078;28;20291;-67
2022/09/19 02:34:02;;;;;;;3.47;1.83;;;14.60;74.10;;;;;;5009418;28;20205;-67
2022/09/19 02:36:32;;;;;;;2.03;1.23;;;14.60;74.10;;;;;;5025814;28;20288;-67
2022/09/19 02:39:05;;;;;;;2.60;1.00;;;14.60;74.00;;;;;;5022656;28;20646;-68
2022/09/19 02:42:17;;;;;;;1.60;1.00;;;14.60;74.30;;;;;;5021812;28;20217;-69
2022/09/19 02:45:19;;;;;;;2.30;1.00;;;14.50;75.40;;;;;;5004096;28;20229;-68
2022/09/19 02:48:18;;;;;;;3.43;0.97;;;14.50;76.20;;;;;;5021660;28;20216;-67
2022/09/19 02:50:48;;;;;;;1.60;1.13;;;14.40;75.90;;;;;;5020101;28;20209;-67
2022/09/19 02:53:21;;;;;;;2.90;1.10;;;14.30;76.30;;;;;;5016028;28;20288;-67
2022/09/19 02:55:55;;;;;;;1.80;1.33;;;14.30;77.10;;;;;;5024331;28;20284;-67
2022/09/19 02:58:25;;;;;;;0.93;0.93;;;14.30;77.40;;;;;;5023190;28;20208;-67
2022/09/19 03:00:57;;;;;;;1.20;1.10;;;14.20;77.30;;;;;;5020824;28;20208;-67
2022/09/19 03:06:32;;;;;;;2.40;1.13;;;14.10;78.00;;;;;;5021055;28;20206;-67
2022/09/19 03:09:00;;;;;;;1.73;1.20;;;14.00;78.60;;;;;;5026708;28;20274;-67
2022/09/19 03:11:32;;;;;;;4.07;1.20;;;14.00;79.00;;;;;;5020822;28;20524;-67
2022/09/19 03:14:01;;;;;;;1.63;1.20;;;13.90;79.40;;;;;;5024280;28;20208;-68
2022/09/19 03:16:35;;;;;;;1.93;0.90;;;13.90;79.80;;;;;;5018533;28;20234;-67
2022/09/19 03:19:09;;;;;;;1.77;1.43;;;14.00;80.10;;;;;;5022249;28;20234;-68
2022/09/19 03:21:38;;;;;;;1.40;1.23;;;14.00;80.30;;;;;;5027455;28;20617;-67
2022/09/19 03:24:05;;;;;;;3.20;1.20;;;13.90;80.30;;;;;;5019578;28;20214;-67
2022/09/19 03:26:35;;;;;;;12.10;1.57;;;14.00;80.30;;;;;;5021478;28;20217;-67
2022/09/19 03:29:08;;;;;;;3.13;1.50;;;13.90;80.00;;;;;;5019324;28;20209;-68
2022/09/19 03:31:46;;;;;;;1.63;1.37;;;13.90;79.80;;;;;;5013875;28;20214;-67
2022/09/19 03:34:14;;;;;;;3.63;1.53;;;13.80;79.40;;;;;;5028684;28;20598;-67
2022/09/19 03:36:43;;;;;;;4.10;1.37;;;13.80;79.30;;;;;;5027488;28;20647;-67
2022/09/19 03:39:16;;;;;;;3.60;1.60;;;13.70;79.80;;;;;;5025250;28;20209;-68
2022/09/19 03:41:43;;;;;;;2.93;1.40;;;13.70;80.50;;;;;;5029896;28;20223;-67
2022/09/19 03:44:11;;;;;;;2.07;1.50;;;13.70;80.80;;;;;;5008101;28;20234;-67
2022/09/19 03:46:38;;;;;;;1.80;1.53;;;13.70;80.60;;;;;;5021123;28;20244;-67
2022/09/19 03:49:06;;;;;;;2.00;1.33;;;13.80;80.80;;;;;;5023543;28;20240;-67
2022/09/19 03:51:33;;;;;;;2.83;1.43;;;13.70;80.80;;;;;;5026275;28;20300;-67
2022/09/19 03:54:03;;;;;;;1.60;1.20;;;13.80;80.80;;;;;;5008667;28;20209;-67
2022/09/19 03:56:37;;;;;;;3.80;1.40;;;13.70;80.70;;;;;;5005266;28;20237;-67
2022/09/19 03:59:06;;;;;;;1.77;1.40;;;13.70;80.90;;;;;;5012099;28;20334;-67
2022/09/19 04:01:35;;;;;;;2.20;1.50;;;13.70;81.10;;;;;;5025069;28;20536;-67
2022/09/19 04:04:04;;;;;;;4.43;2.13;;;13.70;81.30;;;;;;5022155;28;20295;-67
2022/09/19 04:06:34;;;;;;;5.00;1.47;;;13.70;81.50;;;;;;5031094;28;20212;-67
2022/09/19 04:09:03;;;;;;;1.47;1.37;;;13.70;81.60;;;;;;5024477;28;20220;-67
2022/09/19 04:11:30;;;;;;;1.43;1.33;;;13.70;81.80;;;;;;5020765;28;20212;-67
2022/09/19 04:13:58;;;;;;;1.40;1.23;;;13.70;82.00;;;;;;5027256;28;20215;-67
2022/09/19 04:16:25;;;;;;;4.73;1.83;;;13.70;82.10;;;;;;5025478;28;20236;-68
2022/09/19 04:18:52;;;;;;;3.57;1.67;;;13.70;82.20;;;;;;5007418;28;20248;-67
2022/09/19 04:21:42;;;;;;;1.70;1.60;;;13.70;82.30;;;;;;5025765;28;20592;-67
2022/09/19 04:24:29;;;;;;;2.10;1.90;;;13.60;82.50;;;;;;5030511;28;20532;-67
2022/09/19 04:27:13;;;;;;;2.57;1.37;;;13.60;82.50;;;;;;5020861;28;20215;-67
2022/09/19 04:29:46;;;;;;;2.17;1.93;;;13.60;82.60;;;;;;5017989;28;20247;-67
2022/09/19 04:32:15;;;;;;;2.37;1.30;;;13.60;82.80;;;;;;5027686;28;20227;-67
2022/09/19 04:34:47;;;;;;;2.63;1.50;;;13.60;82.90;;;;;;5015322;28;20248;-67
2022/09/19 04:37:15;;;;;;;2.20;1.60;;;13.60;83.00;;;;;;5025696;28;20682;-66
2022/09/19 04:39:49;;;;;;;3.70;1.63;;;13.60;83.30;;;;;;5021287;28;20199;-67
2022/09/19 04:42:17;;;;;;;5.30;1.70;;;13.60;83.10;;;;;;5014253;28;20208;-66
2022/09/19 04:44:44;;;;;;;2.23;1.53;;;13.60;83.20;;;;;;5023444;28;20213;-66
2022/09/19 04:47:19;;;;;;;6.40;1.87;;;13.60;83.10;;;;;;5029108;28;20217;-67
2022/09/19 04:49:46;;;;;;;2.50;2.00;;;13.60;82.90;;;;;;5030797;28;20209;-67
2022/09/19 04:52:13;;;;;;;3.70;2.07;;;13.60;82.80;;;;;;5007713;28;20227;-67
2022/09/19 04:54:47;;;;;;;2.37;1.80;;;13.60;82.70;;;;;;5008407;28;20220;-66
2022/09/19 04:57:16;;;;;;;5.03;2.00;;;13.60;82.50;;;;;;5024343;28;20227;-67
2022/09/19 04:59:44;;;;;;;1.93;1.77;;;13.60;82.50;;;;;;5016201;28;20563;-67
2022/09/19 05:02:12;;;;;;;2.50;2.07;;;13.60;82.70;;;;;;5023645;28;21226;-67
2022/09/19 05:04:41;;;;;;;3.17;2.30;;;13.60;82.90;;;;;;5023506;28;20609;-67
2022/09/19 05:07:13;;;;;;;2.33;1.90;;;13.60;83.10;;;;;;5028608;28;20218;-67
2022/09/19 05:09:44;;;;;;;6.13;2.10;;;13.70;83.30;;;;;;5007016;28;20213;-67
2022/09/19 05:12:12;;;;;;;2.50;1.70;;;13.70;83.30;;;;;;5019204;28;20204;-67
2022/09/19 05:14:43;;;;;;;2.90;1.90;;;13.70;83.40;;;;;;5022438;28;20210;-66
2022/09/19 05:17:10;;;;;;;2.47;2.20;;;13.70;83.40;;;;;;5030072;28;20263;-67
2022/09/19 05:19:39;;;;;;;4.37;2.17;;;13.80;83.50;;;;;;5024168;28;20262;-67
2022/09/19 05:22:06;;;;;;;3.03;2.20;;;13.80;83.30;;;;;;5025124;28;20200;-67
2022/09/19 05:24:37;;;;;;;2.73;1.80;;;13.80;83.00;;;;;;5023164;28;20523;-67
2022/09/19 05:27:05;;;;;;;3.33;2.33;;;13.80;82.90;;;;;;5024560;28;20582;-68
2022/09/19 05:29:36;;;;;;;4.70;2.30;;;13.80;82.80;;;;;;5021201;28;20201;-68
2022/09/19 05:32:04;;;;;;;4.93;2.47;;;13.90;82.90;;;;;;5024144;28;20212;-67
2022/09/19 05:34:53;;;;;;;6.97;3.17;;;14.00;83.00;;;;;;5033352;28;20225;-67
2022/09/19 05:37:40;;;;;;;4.83;2.90;;;14.00;83.10;;;;;;5023865;28;20222;-67
2022/09/19 05:40:30;;;;;;;2.83;2.37;;;14.10;83.20;;;;;;5036272;28;20208;-67
2022/09/19 05:43:15;;;;;;;3.80;2.83;;;14.20;83.30;;;;;;5023623;28;20197;-67
2022/09/19 05:45:42;;;;;;;3.17;2.53;;;14.30;83.30;;;;;;5018409;28;20200;-67
2022/09/19 05:48:10;;;;;;;4.20;2.47;;;14.30;83.20;;;;;;5021329;28;20206;-68
2022/09/19 05:50:37;;;;;;;3.10;2.80;;;14.40;83.00;;;;;;5021593;28;20238;-67
2022/09/19 05:55:53;;;;;;;4.73;3.43;;;14.60;82.10;;;;;;5023278;28;20735;-67
2022/09/19 05:58:45;;;;;;;7.07;3.30;;;14.70;81.90;;;;;;5027159;28;20248;-67
2022/09/19 06:01:13;;;;;;;5.13;3.27;;;14.80;81.80;;;;;;5023090;28;20211;-68
2022/09/19 06:03:41;;;;;;;5.63;3.97;;;14.90;81.60;;;;;;5021328;28;20606;-67
2022/09/19 06:06:18;;;;;;;6.77;4.03;;;15.00;81.20;;;;;;5022173;28;20871;-67
2022/09/19 06:08:53;;;;;;;4.93;3.40;;;15.10;80.80;;;;;;5023910;28;20221;-67
2022/09/19 06:11:20;;;;;;;5.70;4.07;;;15.20;80.70;;;;;;5024143;28;20217;-67
2022/09/19 06:16:33;;;;;;;7.40;4.57;;;15.50;79.70;;;;;;5023877;28;20232;-67
2022/09/19 06:19:19;;;;;;;11.17;4.10;;;15.60;79.60;;;;;;5026372;28;20248;-67
2022/09/19 06:22:00;;;;;;;7.33;3.70;;;15.80;79.30;;;;;;5019073;28;20203;-67
2022/09/19 06:24:27;;;;;;;6.93;4.23;;;15.90;78.90;;;;;;5023048;28;20239;-67
2022/09/19 06:26:55;;;;;;;10.77;4.63;;;16.00;78.50;;;;;;5024154;28;20214;-67
2022/09/19 06:29:24;;;;;;;5.73;4.03;;;16.20;78.30;;;;;;5024218;28;20214;-68
2022/09/19 06:32:11;;;;;;;10.73;4.43;;;16.30;78.20;;;;;;5026766;28;20218;-68
2022/09/19 06:34:42;;;;;;;8.37;4.33;;;16.40;77.80;;;;;;5023780;28;20229;-68
2022/09/19 06:37:26;;;;;;;6.87;4.80;;;16.50;77.50;;;;;;5022152;28;20231;-67
2022/09/19 06:39:53;;;;;;;9.73;4.57;;;16.70;77.30;;;;;;5022862;28;20291;-68
2022/09/19 06:42:44;;;;;;;6.67;4.57;;;16.70;76.80;;;;;;5020039;28;20554;-67
2022/09/19 06:45:40;;;;;;;13.53;4.03;;;16.80;76.40;;;;;;5014953;28;20208;-67
2022/09/19 06:48:36;;;;;;;3.67;3.27;;;16.90;75.80;;;;;;5023687;28;20295;-68
2022/09/19 06:51:23;;;;;;;6.00;3.50;;;17.00;75.20;;;;;;5023801;28;20209;-67
2022/09/19 06:53:51;;;;;;;5.70;3.50;;;17.10;74.80;;;;;;5019085;28;20623;-67
2022/09/19 06:56:18;;;;;;;3.67;3.23;;;17.20;74.50;;;;;;5017845;28;20254;-67
2022/09/19 06:58:46;;;;;;;3.80;2.90;;;17.30;74.10;;;;;;5019207;28;20223;-67
2022/09/19 07:01:15;;;;;;;5.70;3.60;;;17.30;73.80;;;;;;5022932;28;20608;-68
2022/09/19 07:03:42;;;;;;;3.23;2.93;;;17.40;73.40;;;;;;5018950;28;20202;-67
2022/09/19 07:06:13;;;;;;;4.10;3.20;;;17.40;73.10;;;;;;5011268;28;20591;-67
2022/09/19 07:08:44;;;;;;;3.47;3.17;;;17.50;72.90;;;;;;5003893;28;20261;-67
2022/09/19 07:11:11;;;;;;;6.97;3.87;;;17.60;72.80;;;;;;5023727;28;20216;-67
2022/09/19 07:13:43;;;;;;;4.60;3.80;;;17.60;72.80;;;;;;5024810;28;20195;-67
2022/09/19 07:16:10;;;;;;;4.63;3.90;;;17.70;72.90;;;;;;5022219;28;20291;-68
2022/09/19 07:18:38;;;;;;;6.80;3.50;;;17.80;72.90;;;;;;5022406;28;20292;-67
2022/09/19 07:21:25;;;;;;;5.60;3.43;;;17.80;72.70;;;;;;5025385;28;20214;-67
2022/09/19 07:23:55;;;;;;;5.00;3.83;;;18.00;72.80;;;;;;5027738;28;20208;-67
2022/09/19 07:26:48;;;;;;;7.03;3.93;;;18.10;72.70;;;;;;5025229;28;20215;-67
2022/09/19 07:29:18;;;;;;;6.37;3.47;;;18.20;72.90;;;;;;5021562;28;20274;-67
2022/09/19 07:31:46;;;;;;;4.97;3.37;;;18.30;73.10;;;;;;5026551;28;20221;-67
2022/09/19 07:34:13;;;;;;;3.50;3.03;;;18.50;72.90;;;;;;5012469;28;20605;-67
2022/09/19 07:36:47;;;;;;;4.47;3.20;;;18.70;72.70;;;;;;5023685;28;20217;-68
2022/09/19 07:39:14;;;;;;;7.03;3.90;;;18.90;72.10;;;;;;5006644;28;20245;-67
2022/09/19 07:42:20;;;;;;;7.37;3.27;;;19.00;71.40;;;;;;5027708;28;20351;-68
2022/09/19 07:45:14;;;;;;;6.57;3.37;;;19.30;70.60;;;;;;5027941;28;20218;-67
2022/09/19 07:48:11;;;;;;;5.60;3.43;;;19.50;69.90;;;;;;5029665;28;20650;-67
2022/09/19 07:50:57;;;;;;;3.67;3.37;;;19.70;69.40;;;;;;5027384;28;20214;-68
2022/09/19 07:53:34;;;;;;;5.80;3.70;;;19.90;68.60;;;;;;5024535;28;20209;-68
2022/09/19 07:56:04;;;;;;;4.87;3.50;;;20.20;68.40;;;;;;5018451;28;20280;-68
2022/09/19 07:58:31;;;;;;;6.47;3.20;;;20.40;68.20;;;;;;5020312;28;20205;-68
2022/09/19 08:01:01;;;;;;;5.00;3.07;;;20.60;67.80;;;;;;5011615;28;20208;-68
2022/09/19 08:03:49;;;;;;;5.50;3.60;;;20.80;67.20;;;;;;5047883;28;20247;-68
2022/09/19 08:06:24;;;;;;;4.93;3.30;;;21.00;66.50;;;;;;5014869;28;20279;-68
2022/09/19 08:08:54;;;;;;;10.57;3.07;;;21.20;66.00;;;;;;5026561;28;20218;-68
2022/09/19 08:11:40;;;;;;;4.07;3.10;;;21.40;66.00;;;;;;5029163;28;20219;-68
2022/09/19 08:14:07;;;;;;;6.83;3.40;;;21.60;65.50;;;;;;5009841;28;20211;-68
2022/09/19 08:16:36;;;;;;;4.03;3.03;;;21.70;65.00;;;;;;5018082;28;20317;-67
2022/09/19 08:19:04;;;;;;;3.10;2.87;;;21.90;64.60;;;;;;5009367;28;20332;-68
2022/09/19 08:21:33;;;;;;;4.33;2.50;;;22.10;64.10;;;;;;5024648;28;20294;-67
2022/09/19 08:24:02;;;;;;;3.40;2.43;;;22.20;63.40;;;;;;5022440;28;20222;-69
2022/09/19 08:26:30;;;;;;;4.03;2.90;;;22.40;62.80;;;;;;5025926;28;20280;-69
2022/09/19 08:28:58;;;;;;;5.57;3.03;;;22.50;62.70;;;;;;5012803;28;20238;-68
2022/09/19 08:31:30;;;;;;;4.77;2.93;;;22.60;62.40;;;;;;5021526;28;20204;-68
2022/09/19 08:33:57;;;;;;;7.07;3.00;;;22.80;61.90;;;;;;5024298;28;20210;-68
2022/09/19 08:36:24;;;;;;;3.90;2.80;;;23.00;61.50;;;;;;5025658;28;20326;-68
2022/09/19 08:38:53;;;;;;;7.40;2.73;;;23.10;61.10;;;;;;5020794;28;20200;-68
2022/09/19 08:41:36;;;;;;;4.33;2.73;;;23.20;60.70;;;;;;5021398;28;20218;-68
2022/09/19 08:44:19;;;;;;;2.70;2.40;;;23.40;60.30;;;;;;5032406;28;20199;-67
2022/09/19 08:47:07;;;;;;;6.10;2.87;;;23.50;60.00;;;;;;5022836;28;20208;-68
2022/09/19 08:49:39;;;;;;;5.73;2.87;;;23.70;59.80;;;;;;5021140;28;20212;-68
2022/09/19 08:52:43;;;;;;;3.23;2.70;;;23.80;59.70;;;;;;5027578;28;20618;-68
2022/09/19 08:55:26;;;;;;;3.00;2.33;;;23.90;59.30;;;;;;5025318;28;20203;-68
2022/09/19 08:57:59;;;;;;;4.80;2.27;;;24.00;58.70;;;;;;5027167;28;20215;-67
2022/09/19 09:00:41;;;;;;;9.03;2.77;;;24.10;58.50;;;;;;5023135;28;20200;-68
2022/09/19 09:03:33;;;;;;;2.00;1.50;;;24.20;58.90;;;;;;5030634;28;20282;-68
2022/09/19 09:06:14;;;;;;;2.20;1.60;;;24.30;58.20;;;;;;5021285;28;20581;-68
2022/09/19 09:09:10;;;;;;;3.57;1.40;;;24.40;57.90;;;;;;5026086;28;20273;-68
2022/09/19 09:11:56;;;;;;;1.63;1.53;;;24.60;57.90;;;;;;5030594;28;20305;-68
2022/09/19 09:15:01;;;;;;;2.33;1.30;;;24.60;57.40;;;;;;5012088;28;20207;-67
2022/09/19 09:18:14;;;;;;;1.70;1.60;;;24.70;57.60;;;;;;5014513;28;20683;-68
2022/09/19 09:21:15;;;;;;;3.30;1.60;;;24.80;57.50;;;;;;5026752;28;20204;-68
2022/09/19 09:23:49;;;;;;;1.97;1.50;;;25.00;57.20;;;;;;5015645;28;20237;-68
2022/09/19 09:26:30;;;;;;;2.20;1.30;;;25.10;56.40;;;;;;5022871;28;20652;-68
2022/09/19 09:29:32;;;;;;;3.63;1.63;;;25.10;57.30;;;;;;5027908;28;20200;-67
2022/09/19 09:32:24;;;;;;;4.57;1.70;;;25.20;56.50;;;;;;5020940;28;20757;-67
2022/09/19 09:35:12;;;;;;;2.43;1.20;;;25.20;55.30;;;;;;5029358;28;20204;-67
2022/09/19 09:37:56;;;;;;;2.03;1.40;;;25.20;55.70;;;;;;5019517;28;20737;-68
2022/09/19 09:43:45;;;;;;;2.47;1.53;;;25.30;55.50;;;;;;5020539;28;20295;-67
2022/09/19 09:46:24;;;;;;;3.83;1.43;;;25.40;55.70;;;;;;5024975;28;20206;-67
2022/09/19 09:48:53;;;;;;;4.10;1.70;;;25.40;56.00;;;;;;5030121;28;20211;-67
2022/09/19 09:51:26;;;;;;;5.53;1.60;;;25.30;56.00;;;;;;5020105;28;20722;-67
2022/09/19 09:54:00;;;;;;;2.07;1.87;;;25.40;56.40;;;;;;5019482;28;20747;-67
2022/09/19 09:57:05;;;;;;;3.97;1.67;;;25.40;55.40;;;;;;5030490;28;20203;-69
2022/09/19 10:03:36;;;;;;;4.10;1.77;;;25.30;55.30;;;;;;5023064;28;20231;-68
2022/09/19 10:06:34;;;;;;;2.83;1.53;;;25.40;55.30;;;;;;5018900;28;20225;-68
2022/09/19 10:09:18;;;;;;;4.77;1.93;;;25.60;55.50;;;;;;5023723;28;20250;-68
2022/09/19 10:12:05;;;;;;;3.90;1.50;;;25.60;53.70;;;;;;5005383;28;20203;-67
2022/09/19 10:14:58;;;;;;;3.03;1.60;;;25.50;54.60;;;;;;5026843;28;20538;-68
2022/09/19 10:18:06;;;;;;;1.90;1.57;;;25.40;54.90;;;;;;5021753;28;20243;-68
2022/09/19 10:20:49;;;;;;;2.83;1.33;;;25.30;55.20;;;;;;5011535;28;20200;-68
2022/09/19 10:23:25;;;;;;;3.53;1.37;;;25.40;55.50;;;;;;5026273;28;20200;-68
2022/09/19 10:26:00;;;;;;;8.07;1.67;;;25.50;53.60;;;;;;5023311;28;20234;-69
2022/09/19 10:28:59;;;;;;;3.57;1.50;;;25.60;54.40;;;;;;5018254;28;20294;-68
2022/09/19 10:31:40;;;;;;;1.93;1.33;;;25.80;55.20;;;;;;5020462;28;20613;-68
2022/09/19 10:34:27;;;;;;;4.30;1.43;;;26.00;55.20;;;;;;5020110;28;20286;-68
2022/09/19 10:37:02;;;;;;;2.57;1.70;;;26.20;54.40;;;;;;5027540;28;20229;-68
2022/09/19 10:39:44;;;;;;;2.70;1.40;;;26.30;51.60;;;;;;5021166;28;20203;-68
2022/09/19 10:42:37;;;;;;;2.23;1.27;;;26.30;52.80;;;;;;5026078;28;20296;-68
2022/09/19 10:45:25;;;;;;;4.00;1.23;;;26.40;54.00;;;;;;5032462;28;20208;-68
2022/09/19 10:47:57;;;;;;;4.27;1.70;;;26.50;53.20;;;;;;5018465;28;20210;-67
2022/09/19 10:50:24;;;;;;;3.43;1.40;;;26.60;53.20;;;;;;5004883;28;20300;-68
2022/09/19 10:53:05;;;;;;;1.73;1.20;;;26.70;52.60;;;;;;5022218;28;21000;-69
2022/09/19 10:55:42;;;;;;;3.30;1.27;;;26.90;53.40;;;;;;5029169;28;20223;-68
2022/09/19 10:58:26;;;;;;;1.87;1.40;;;26.90;52.60;;;;;;5015571;28;20590;-69
2022/09/19 11:01:23;;;;;;;4.03;1.20;;;27.00;52.70;;;;;;5012610;28;20267;-67
2022/09/19 11:04:22;;;;;;;2.60;1.07;;;27.10;52.90;;;;;;5020850;28;20270;-68
2022/09/19 11:07:00;;;;;;;2.83;1.13;;;27.20;51.60;;;;;;5027863;28;20197;-69
2022/09/19 11:09:36;;;;;;;3.63;1.87;;;27.10;50.90;;;;;;5031764;28;20770;-69
2022/09/19 11:12:09;;;;;;;2.23;1.37;;;27.10;50.30;;;;;;5012728;28;20557;-69
2022/09/19 11:14:41;;;;;;;2.43;1.07;;;27.00;51.90;;;;;;5035059;28;20203;-69
2022/09/19 11:17:55;;;;;;;3.90;1.30;;;27.00;51.50;;;;;;5020111;28;20260;-69
2022/09/19 11:20:57;;;;;;;1.80;1.00;;;26.90;49.80;;;;;;5010279;28;20210;-69
2022/09/19 11:23:33;;;;;;;2.67;1.13;;;26.80;50.10;;;;;;5022175;28;20215;-69
2022/09/19 11:26:22;;;;;;;2.10;1.30;;;26.60;51.30;;;;;;5029064;28;20263;-69
2022/09/19 11:29:11;;;;;;;3.23;1.60;;;26.70;50.40;;;;;;5031670;28;20216;-69
2022/09/19 11:32:10;;;;;;;1.63;1.30;;;26.70;51.70;;;;;;5023881;28;20221;-69
2022/09/19 11:35:25;;;;;;;1.83;1.37;;;26.80;51.80;;;;;;5016437;28;20565;-68
2022/09/19 11:38:23;;;;;;;2.90;1.37;;;26.90;50.80;;;;;;5010846;28;20226;-68
2022/09/19 11:41:32;;;;;;;4.00;1.33;;;27.10;50.40;;;;;;5025068;28;20301;-68
2022/09/19 11:44:30;;;;;;;1.30;1.20;;;27.10;49.60;;;;;;5019049;28;20238;-67
2022/09/19 11:47:12;;;;;;;4.63;1.47;;;27.10;49.90;;;;;;5026385;28;20196;-68
2022/09/19 11:50:19;;;;;;;3.97;1.40;;;26.90;49.40;;;;;;5018333;28;20214;-68
2022/09/19 11:53:06;;;;;;;6.33;1.73;;;26.90;50.60;;;;;;5014719;28;20205;-69
2022/09/19 11:56:11;;;;;;;1.87;1.40;;;26.90;49.90;;;;;;5024608;28;20212;-67
2022/09/19 11:59:00;;;;;;;1.57;1.20;;;27.00;51.10;;;;;;5021904;28;20321;-68
2022/09/19 12:01:40;;;;;;;4.83;2.00;;;27.10;50.70;;;;;;5030543;28;20560;-68
2022/09/19 12:04:24;;;;;;;2.33;1.10;;;27.10;50.70;;;;;;5027693;28;20735;-68
2022/09/19 12:07:03;;;;;;;2.33;1.50;;;27.10;47.80;;;;;;5026973;28;20247;-67
2022/09/19 12:09:56;;;;;;;3.57;1.00;;;27.10;46.90;;;;;;5023096;28;20242;-67
2022/09/19 12:12:27;;;;;;;4.53;1.57;;;27.10;47.10;;;;;;5031464;28;20309;-67
2022/09/19 12:15:28;;;;;;;3.33;2.00;;;27.00;45.80;;;;;;5026747;28;20304;-67
2022/09/19 12:18:03;;;;;;;3.87;1.40;;;26.90;46.70;;;;;;5024636;28;20287;-68
2022/09/19 12:20:39;;;;;;;2.40;1.37;;;26.90;47.80;;;;;;5033575;28;20215;-67
2022/09/19 12:26:29;;;;;;;2.90;1.50;;;26.70;46.50;;;;;;5027688;28;20211;-68
2022/09/19 12:29:14;;;;;;;3.17;1.37;;;26.80;47.90;;;;;;5023406;28;20208;-67
2022/09/19 12:31:47;;;;;;;1.93;1.27;;;26.80;46.60;;;;;;5030464;28;20248;-68
2022/09/19 12:34:50;;;;;;;5.00;1.30;;;26.90;46.70;;;;;;5026482;28;20210;-68
2022/09/19 12:37:46;;;;;;;2.43;1.30;;;26.90;46.40;;;;;;5022135;28;20224;-68
2022/09/19 12:40:16;;;;;;;3.03;1.23;;;26.90;45.90;;;;;;5029666;28;20214;-69
2022/09/19 12:43:01;;;;;;;2.67;1.30;;;26.90;44.70;;;;;;5038484;28;20215;-69
2022/09/19 12:45:39;;;;;;;2.73;1.60;;;26.90;45.40;;;;;;5028731;28;20240;-68
2022/09/19 12:48:39;;;;;;;3.97;1.60;;;26.80;44.00;;;;;;5040102;28;20209;-69
2022/09/19 12:51:49;;;;;;;4.03;1.30;;;26.70;44.80;;;;;;5021433;28;20684;-68
2022/09/19 12:54:43;;;;;;;3.43;1.67;;;26.70;44.60;;;;;;5032222;28;20214;-68
2022/09/19 12:57:47;;;;;;;2.00;1.47;;;26.80;45.50;;;;;;5036251;28;20219;-68
2022/09/19 13:00:14;;;;;;;8.67;2.07;;;26.90;44.80;;;;;;5018920;28;20579;-68
2022/09/19 13:03:21;;;;;;;3.10;1.20;;;26.90;44.60;;;;;;5017003;28;20258;-68
2022/09/19 13:05:56;;;;;;;1.90;1.50;;;26.90;44.10;;;;;;5027160;28;20663;-68
2022/09/19 13:08:36;;;;;;;2.37;1.73;;;26.90;43.20;;;;;;5023748;28;20217;-68
2022/09/19 13:11:13;;;;;;;2.47;1.67;;;26.90;42.00;;;;;;5022922;28;20218;-68
2022/09/19 13:13:59;;;;;;;5.23;1.67;;;26.80;42.30;;;;;;5017664;28;20301;-68
2022/09/19 13:16:32;;;;;;;4.83;1.40;;;26.80;42.30;;;;;;5018370;28;20191;-68
2022/09/19 13:24:47;;;;;;;1.73;1.60;;;26.80;42.10;;;;;;5017917;28;20208;-68
2022/09/19 13:27:14;;;;;;;1.60;1.37;;;26.80;42.60;;;;;;5022507;28;20231;-68
2022/09/19 13:29:45;;;;;;;2.73;1.53;;;26.70;41.90;;;;;;5020827;28;20215;-68
2022/09/19 13:32:53;;;;;;;3.53;1.50;;;26.70;41.70;;;;;;5023741;28;20278;-68
2022/09/19 13:35:22;;;;;;;4.23;1.47;;;26.70;41.60;;;;;;5022047;28;20642;-68
2022/09/19 13:37:57;;;;;;;3.17;1.43;;;26.70;41.70;;;;;;5026627;28;20209;-68
2022/09/19 13:40:42;;;;;;;1.60;1.47;;;26.70;41.80;;;;;;5028505;28;20276;-68
2022/09/19 13:43:09;;;;;;;2.00;1.50;;;26.70;42.40;;;;;;5021874;28;20602;-68
2022/09/19 13:45:44;;;;;;;1.63;1.43;;;26.70;41.60;;;;;;5019528;28;20227;-68
2022/09/19 13:48:25;;;;;;;2.03;1.80;;;26.70;41.80;;;;;;5026951;28;20206;-67
2022/09/19 13:51:19;;;;;;;1.47;1.30;;;26.70;41.20;;;;;;5021502;28;20200;-67
2022/09/19 13:54:16;;;;;;;3.20;1.30;;;26.70;42.00;;;;;;5020272;28;20212;-67
2022/09/19 13:56:47;;;;;;;2.57;1.53;;;26.60;41.50;;;;;;5019531;28;20273;-68
2022/09/19 13:59:35;;;;;;;3.37;2.00;;;26.60;41.60;;;;;;5021345;28;20672;-68
2022/09/19 14:02:17;;;;;;;3.87;1.60;;;26.50;41.40;;;;;;5025968;28;20254;-67
2022/09/19 14:05:10;;;;;;;2.17;1.47;;;26.50;41.60;;;;;;5022763;28;20206;-67
2022/09/19 14:07:52;;;;;;;4.60;1.50;;;26.50;40.90;;;;;;5020599;28;20711;-68
2022/09/19 14:10:48;;;;;;;1.87;1.40;;;26.50;39.80;;;;;;5023359;28;20203;-67
2022/09/19 14:13:25;;;;;;;4.13;1.40;;;26.50;40.30;;;;;;5020100;28;20263;-68